sensor_id;sensor_type;location;lat;lon;timestamp;temperature;humidity
66752;SHT31;53663;42.676;23.238;2023-10-31T00:01:14;10.71;74.64
66752;SHT31;53663;42.676;23.238;2023-10-31T00:03:40;10.71;74.68
66752;SHT31;53663;42.676;23.238;2023-10-31T00:06:08;10.45;75.84
66752;SHT31;53663;42.676;23.238;2023-10-31T00:08:33;10.44;75.36
66752;SHT31;53663;42.676;23.238;2023-10-31T00:10:59;10.42;75.68
66752;SHT31;53663;42.676;23.238;2023-10-31T00:13:24;10.40;76.06
66752;SHT31;53663;42.676;23.238;2023-10-31T00:15:50;10.48;75.44
66752;SHT31;53663;42.676;23.238;2023-10-31T00:18:15;10.52;75.07
66752;SHT31;53663;42.676;23.238;2023-10-31T00:20:41;10.55;74.69
66752;SHT31;53663;42.676;23.238;2023-10-31T00:23:07;10.58;74.86
66752;SHT31;53663;42.676;23.238;2023-10-31T00:25:32;10.20;76.62
66752;SHT31;53663;42.676;23.238;2023-10-31T00:27:58;10.24;76.28
66752;SHT31;53663;42.676;23.238;2023-10-31T00:30:23;10.22;76.49
66752;SHT31;53663;42.676;23.238;2023-10-31T00:32:49;10.25;76.40
66752;SHT31;53663;42.676;23.238;2023-10-31T00:35:14;10.20;76.51
66752;SHT31;53663;42.676;23.238;2023-10-31T00:37:41;10.07;77.44
66752;SHT31;53663;42.676;23.238;2023-10-31T00:40:07;10.18;76.59
66752;SHT31;53663;42.676;23.238;2023-10-31T00:42:33;10.25;75.86
66752;SHT31;53663;42.676;23.238;2023-10-31T00:44:59;10.22;76.07
66752;SHT31;53663;42.676;23.238;2023-10-31T00:47:24;10.21;76.21
66752;SHT31;53663;42.676;23.238;2023-10-31T00:49:50;10.16;76.58
66752;SHT31;53663;42.676;23.238;2023-10-31T00:52:18;10.16;76.43
66752;SHT31;53663;42.676;23.238;2023-10-31T00:54:44;9.99;77.14
66752;SHT31;53663;42.676;23.238;2023-10-31T00:57:09;10.01;76.98
66752;SHT31;53663;42.676;23.238;2023-10-31T00:59:35;10.04;76.56
66752;SHT31;53663;42.676;23.238;2023-10-31T01:02:00;10.03;76.96
66752;SHT31;53663;42.676;23.238;2023-10-31T01:04:26;9.93;77.17
66752;SHT31;53663;42.676;23.238;2023-10-31T01:06:51;9.80;77.84
66752;SHT31;53663;42.676;23.238;2023-10-31T01:09:17;9.75;78.07
66752;SHT31;53663;42.676;23.238;2023-10-31T01:11:42;9.83;77.65
66752;SHT31;53663;42.676;23.238;2023-10-31T01:14:08;9.85;77.64
66752;SHT31;53663;42.676;23.238;2023-10-31T01:16:34;9.73;77.70
66752;SHT31;53663;42.676;23.238;2023-10-31T01:18:59;9.83;77.66
66752;SHT31;53663;42.676;23.238;2023-10-31T01:21:25;9.85;77.61
66752;SHT31;53663;42.676;23.238;2023-10-31T01:23:50;9.94;77.84
66752;SHT31;53663;42.676;23.238;2023-10-31T01:26:17;9.85;78.23
66752;SHT31;53663;42.676;23.238;2023-10-31T01:28:42;9.90;77.87
66752;SHT31;53663;42.676;23.238;2023-10-31T01:31:09;9.76;77.99
66752;SHT31;53663;42.676;23.238;2023-10-31T01:33:35;9.79;78.30
66752;SHT31;53663;42.676;23.238;2023-10-31T01:36:01;9.90;78.13
66752;SHT31;53663;42.676;23.238;2023-10-31T01:38:26;9.69;79.12
66752;SHT31;53663;42.676;23.238;2023-10-31T01:40:53;9.35;80.16
66752;SHT31;53663;42.676;23.238;2023-10-31T01:43:37;9.48;79.65
66752;SHT31;53663;42.676;23.238;2023-10-31T01:46:04;9.59;78.66
66752;SHT31;53663;42.676;23.238;2023-10-31T01:48:31;9.63;78.68
66752;SHT31;53663;42.676;23.238;2023-10-31T01:50:59;9.70;77.91
66752;SHT31;53663;42.676;23.238;2023-10-31T01:53:25;9.59;78.46
66752;SHT31;53663;42.676;23.238;2023-10-31T01:55:53;9.55;78.86
66752;SHT31;53663;42.676;23.238;2023-10-31T01:58:23;9.49;78.73
66752;SHT31;53663;42.676;23.238;2023-10-31T02:00:51;9.49;78.56
66752;SHT31;53663;42.676;23.238;2023-10-31T02:03:17;9.52;78.70
66752;SHT31;53663;42.676;23.238;2023-10-31T02:05:42;9.46;78.74
66752;SHT31;53663;42.676;23.238;2023-10-31T02:08:09;9.49;78.61
66752;SHT31;53663;42.676;23.238;2023-10-31T02:10:35;9.51;78.35
66752;SHT31;53663;42.676;23.238;2023-10-31T02:13:14;9.58;78.50
66752;SHT31;53663;42.676;23.238;2023-10-31T02:15:40;9.58;78.39
66752;SHT31;53663;42.676;23.238;2023-10-31T02:18:07;9.59;77.68
66752;SHT31;53663;42.676;23.238;2023-10-31T02:20:33;9.59;77.90
66752;SHT31;53663;42.676;23.238;2023-10-31T02:22:58;9.48;78.62
66752;SHT31;53663;42.676;23.238;2023-10-31T02:25:24;9.53;78.48
66752;SHT31;53663;42.676;23.238;2023-10-31T02:27:50;9.52;78.04
66752;SHT31;53663;42.676;23.238;2023-10-31T02:30:16;9.49;78.17
66752;SHT31;53663;42.676;23.238;2023-10-31T02:32:42;9.48;79.00
66752;SHT31;53663;42.676;23.238;2023-10-31T02:35:08;9.59;79.18
66752;SHT31;53663;42.676;23.238;2023-10-31T02:37:34;9.53;79.04
66752;SHT31;53663;42.676;23.238;2023-10-31T02:40:00;9.55;79.10
66752;SHT31;53663;42.676;23.238;2023-10-31T02:42:26;9.59;78.79
66752;SHT31;53663;42.676;23.238;2023-10-31T02:44:53;9.49;79.86
66752;SHT31;53663;42.676;23.238;2023-10-31T02:47:19;9.49;79.47
66752;SHT31;53663;42.676;23.238;2023-10-31T02:49:44;9.55;79.33
66752;SHT31;53663;42.676;23.238;2023-10-31T02:52:10;9.59;79.02
66752;SHT31;53663;42.676;23.238;2023-10-31T02:54:35;9.60;78.91
66752;SHT31;53663;42.676;23.238;2023-10-31T02:57:01;9.59;78.83
66752;SHT31;53663;42.676;23.238;2023-10-31T02:59:27;9.59;78.35
66752;SHT31;53663;42.676;23.238;2023-10-31T03:01:53;9.66;78.45
66752;SHT31;53663;42.676;23.238;2023-10-31T03:04:19;9.60;78.50
66752;SHT31;53663;42.676;23.238;2023-10-31T03:06:44;9.48;79.43
66752;SHT31;53663;42.676;23.238;2023-10-31T03:09:10;9.42;79.82
66752;SHT31;53663;42.676;23.238;2023-10-31T03:11:35;9.45;79.31
66752;SHT31;53663;42.676;23.238;2023-10-31T03:14:01;9.20;81.37
66752;SHT31;53663;42.676;23.238;2023-10-31T03:16:27;9.17;81.26
66752;SHT31;53663;42.676;23.238;2023-10-31T03:18:52;9.21;81.65
66752;SHT31;53663;42.676;23.238;2023-10-31T03:21:18;9.10;81.35
66752;SHT31;53663;42.676;23.238;2023-10-31T03:23:48;9.12;81.36
66752;SHT31;53663;42.676;23.238;2023-10-31T03:26:19;8.90;82.57
66752;SHT31;53663;42.676;23.238;2023-10-31T03:28:45;8.93;82.09
66752;SHT31;53663;42.676;23.238;2023-10-31T03:31:11;8.96;81.57
66752;SHT31;53663;42.676;23.238;2023-10-31T03:33:37;8.97;81.26
66752;SHT31;53663;42.676;23.238;2023-10-31T03:36:04;9.04;80.94
66752;SHT31;53663;42.676;23.238;2023-10-31T03:38:31;8.91;81.26
66752;SHT31;53663;42.676;23.238;2023-10-31T03:40:56;8.88;81.64
66752;SHT31;53663;42.676;23.238;2023-10-31T03:43:22;9.00;81.45
66752;SHT31;53663;42.676;23.238;2023-10-31T03:45:48;9.10;80.96
66752;SHT31;53663;42.676;23.238;2023-10-31T03:48:15;9.03;80.96
66752;SHT31;53663;42.676;23.238;2023-10-31T03:50:41;8.99;81.39
66752;SHT31;53663;42.676;23.238;2023-10-31T03:53:06;9.07;81.54
66752;SHT31;53663;42.676;23.238;2023-10-31T03:55:32;9.01;81.64
66752;SHT31;53663;42.676;23.238;2023-10-31T03:57:58;8.99;80.86
66752;SHT31;53663;42.676;23.238;2023-10-31T04:00:24;8.99;80.76
66752;SHT31;53663;42.676;23.238;2023-10-31T04:02:49;9.00;80.33
66752;SHT31;53663;42.676;23.238;2023-10-31T04:05:15;8.85;80.68
66752;SHT31;53663;42.676;23.238;2023-10-31T04:07:40;8.87;80.87
66752;SHT31;53663;42.676;23.238;2023-10-31T04:10:07;8.66;81.53
66752;SHT31;53663;42.676;23.238;2023-10-31T04:12:33;8.60;81.57
66752;SHT31;53663;42.676;23.238;2023-10-31T04:14:59;8.45;81.37
66752;SHT31;53663;42.676;23.238;2023-10-31T04:17:24;7.93;84.33
66752;SHT31;53663;42.676;23.238;2023-10-31T04:19:50;8.12;84.43
66752;SHT31;53663;42.676;23.238;2023-10-31T04:22:16;8.14;84.15
66752;SHT31;53663;42.676;23.238;2023-10-31T04:24:41;8.22;83.54
66752;SHT31;53663;42.676;23.238;2023-10-31T04:27:08;8.08;84.02
66752;SHT31;53663;42.676;23.238;2023-10-31T04:29:34;8.20;83.51
66752;SHT31;53663;42.676;23.238;2023-10-31T04:32:00;8.02;84.75
66752;SHT31;53663;42.676;23.238;2023-10-31T04:34:25;8.09;84.86
66752;SHT31;53663;42.676;23.238;2023-10-31T04:36:51;8.15;84.28
66752;SHT31;53663;42.676;23.238;2023-10-31T04:39:16;7.90;85.06
66752;SHT31;53663;42.676;23.238;2023-10-31T04:41:42;7.91;85.18
66752;SHT31;53663;42.676;23.238;2023-10-31T04:44:07;8.05;84.21
66752;SHT31;53663;42.676;23.238;2023-10-31T04:46:33;8.22;83.50
66752;SHT31;53663;42.676;23.238;2023-10-31T04:48:59;8.09;83.53
66752;SHT31;53663;42.676;23.238;2023-10-31T04:51:24;8.11;83.57
66752;SHT31;53663;42.676;23.238;2023-10-31T04:53:50;8.08;84.02
66752;SHT31;53663;42.676;23.238;2023-10-31T04:56:16;7.94;84.93
66752;SHT31;53663;42.676;23.238;2023-10-31T04:58:42;7.85;85.67
66752;SHT31;53663;42.676;23.238;2023-10-31T05:01:09;7.91;87.03
66752;SHT31;53663;42.676;23.238;2023-10-31T05:03:34;8.01;86.48
66752;SHT31;53663;42.676;23.238;2023-10-31T05:06:00;8.02;86.37
66752;SHT31;53663;42.676;23.238;2023-10-31T05:08:25;8.01;86.51
66752;SHT31;53663;42.676;23.238;2023-10-31T05:10:51;7.91;86.81
66752;SHT31;53663;42.676;23.238;2023-10-31T05:13:17;8.02;86.36
66752;SHT31;53663;42.676;23.238;2023-10-31T05:15:42;7.91;86.64
66752;SHT31;53663;42.676;23.238;2023-10-31T05:18:08;8.14;85.98
66752;SHT31;53663;42.676;23.238;2023-10-31T05:20:34;8.22;85.49
66752;SHT31;53663;42.676;23.238;2023-10-31T05:22:59;8.31;84.95
66752;SHT31;53663;42.676;23.238;2023-10-31T05:25:25;8.41;84.79
66752;SHT31;53663;42.676;23.238;2023-10-31T05:27:51;8.20;85.84
66752;SHT31;53663;42.676;23.238;2023-10-31T05:30:17;8.45;84.96
66752;SHT31;53663;42.676;23.238;2023-10-31T05:32:43;8.85;83.95
66752;SHT31;53663;42.676;23.238;2023-10-31T05:35:10;8.88;83.23
66752;SHT31;53663;42.676;23.238;2023-10-31T05:37:36;10.44;80.94
66752;SHT31;53663;42.676;23.238;2023-10-31T05:40:01;11.93;73.78
66752;SHT31;53663;42.676;23.238;2023-10-31T05:42:27;13.74;69.25
66752;SHT31;53663;42.676;23.238;2023-10-31T05:44:54;15.21;61.66
66752;SHT31;53663;42.676;23.238;2023-10-31T05:47:19;16.23;58.34
66752;SHT31;53663;42.676;23.238;2023-10-31T05:49:46;16.48;57.19
66752;SHT31;53663;42.676;23.238;2023-10-31T05:52:11;18.06;53.15
66752;SHT31;53663;42.676;23.238;2023-10-31T05:54:37;18.53;50.32
66752;SHT31;53663;42.676;23.238;2023-10-31T05:57:02;19.06;47.96
66752;SHT31;53663;42.676;23.238;2023-10-31T05:59:28;19.83;47.24
66752;SHT31;53663;42.676;23.238;2023-10-31T06:01:53;20.10;47.33
66752;SHT31;53663;42.676;23.238;2023-10-31T06:04:19;21.18;44.00
66752;SHT31;53663;42.676;23.238;2023-10-31T06:06:45;21.87;43.37
66752;SHT31;53663;42.676;23.238;2023-10-31T06:09:10;22.84;40.15
66752;SHT31;53663;42.676;23.238;2023-10-31T06:11:36;23.76;39.16
66752;SHT31;53663;42.676;23.238;2023-10-31T06:14:01;24.37;37.73
66752;SHT31;53663;42.676;23.238;2023-10-31T06:16:27;25.34;35.97
66752;SHT31;53663;42.676;23.238;2023-10-31T06:18:52;26.52;34.37
66752;SHT31;53663;42.676;23.238;2023-10-31T06:21:18;27.10;32.92
66752;SHT31;53663;42.676;23.238;2023-10-31T06:23:43;28.06;31.57
66752;SHT31;53663;42.676;23.238;2023-10-31T06:26:11;28.43;31.17
66752;SHT31;53663;42.676;23.238;2023-10-31T06:28:37;28.83;29.81
66752;SHT31;53663;42.676;23.238;2023-10-31T06:31:03;27.50;30.97
66752;SHT31;53663;42.676;23.238;2023-10-31T06:33:28;27.69;32.35
66752;SHT31;53663;42.676;23.238;2023-10-31T06:35:54;29.44;29.35
66752;SHT31;53663;42.676;23.238;2023-10-31T06:38:20;30.78;27.98
66752;SHT31;53663;42.676;23.238;2023-10-31T06:40:45;31.91;26.46
66752;SHT31;53663;42.676;23.238;2023-10-31T06:43:11;30.73;27.19
66752;SHT31;53663;42.676;23.238;2023-10-31T06:45:36;30.57;27.58
66752;SHT31;53663;42.676;23.238;2023-10-31T06:48:02;31.35;27.17
66752;SHT31;53663;42.676;23.238;2023-10-31T06:50:28;30.36;28.08
66752;SHT31;53663;42.676;23.238;2023-10-31T06:52:54;30.44;27.97
66752;SHT31;53663;42.676;23.238;2023-10-31T06:55:20;30.18;28.21
66752;SHT31;53663;42.676;23.238;2023-10-31T06:57:45;31.67;26.44
66752;SHT31;53663;42.676;23.238;2023-10-31T07:00:12;32.98;25.45
66752;SHT31;53663;42.676;23.238;2023-10-31T07:02:37;32.57;25.67
66752;SHT31;53663;42.676;23.238;2023-10-31T07:05:03;32.80;25.24
66752;SHT31;53663;42.676;23.238;2023-10-31T07:07:29;30.53;27.60
66752;SHT31;53663;42.676;23.238;2023-10-31T07:09:55;30.66;27.96
66752;SHT31;53663;42.676;23.238;2023-10-31T07:12:20;31.31;27.37
66752;SHT31;53663;42.676;23.238;2023-10-31T07:14:47;32.31;26.52
66752;SHT31;53663;42.676;23.238;2023-10-31T07:17:12;31.96;26.31
66752;SHT31;53663;42.676;23.238;2023-10-31T07:19:38;31.80;26.86
66752;SHT31;53663;42.676;23.238;2023-10-31T07:22:03;32.67;27.00
66752;SHT31;53663;42.676;23.238;2023-10-31T07:24:29;33.43;25.29
66752;SHT31;53663;42.676;23.238;2023-10-31T07:26:55;32.23;26.46
66752;SHT31;53663;42.676;23.238;2023-10-31T07:29:20;32.96;25.88
66752;SHT31;53663;42.676;23.238;2023-10-31T07:31:46;33.37;25.13
66752;SHT31;53663;42.676;23.238;2023-10-31T07:34:11;35.19;23.21
66752;SHT31;53663;42.676;23.238;2023-10-31T07:36:37;32.80;25.90
66752;SHT31;53663;42.676;23.238;2023-10-31T07:39:04;34.57;23.46
66752;SHT31;53663;42.676;23.238;2023-10-31T07:41:30;34.60;23.65
66752;SHT31;53663;42.676;23.238;2023-10-31T07:43:55;34.80;23.01
66752;SHT31;53663;42.676;23.238;2023-10-31T07:46:21;35.85;22.30
66752;SHT31;53663;42.676;23.238;2023-10-31T07:48:48;35.01;22.65
66752;SHT31;53663;42.676;23.238;2023-10-31T07:51:14;33.74;24.67
66752;SHT31;53663;42.676;23.238;2023-10-31T07:53:41;35.03;22.52
66752;SHT31;53663;42.676;23.238;2023-10-31T07:56:15;34.56;23.34
66752;SHT31;53663;42.676;23.238;2023-10-31T07:58:40;32.94;25.30
66752;SHT31;53663;42.676;23.238;2023-10-31T08:01:06;34.38;23.89
66752;SHT31;53663;42.676;23.238;2023-10-31T08:03:38;36.22;21.74
66752;SHT31;53663;42.676;23.238;2023-10-31T08:06:05;34.97;22.58
66752;SHT31;53663;42.676;23.238;2023-10-31T08:08:32;34.42;23.72
66752;SHT31;53663;42.676;23.238;2023-10-31T08:10:59;35.64;22.69
66752;SHT31;53663;42.676;23.238;2023-10-31T08:13:24;37.11;21.55
66752;SHT31;53663;42.676;23.238;2023-10-31T08:15:52;36.63;21.76
66752;SHT31;53663;42.676;23.238;2023-10-31T08:18:19;37.47;20.33
66752;SHT31;53663;42.676;23.238;2023-10-31T08:20:44;35.28;22.72
66752;SHT31;53663;42.676;23.238;2023-10-31T08:23:14;37.52;20.64
66752;SHT31;53663;42.676;23.238;2023-10-31T08:25:39;38.95;19.28
66752;SHT31;53663;42.676;23.238;2023-10-31T08:28:05;39.51;18.70
66752;SHT31;53663;42.676;23.238;2023-10-31T08:30:30;39.28;18.78
66752;SHT31;53663;42.676;23.238;2023-10-31T08:32:56;33.33;23.73
66752;SHT31;53663;42.676;23.238;2023-10-31T08:35:21;29.61;28.34
66752;SHT31;53663;42.676;23.238;2023-10-31T08:37:47;26.98;32.41
66752;SHT31;53663;42.676;23.238;2023-10-31T08:40:12;26.53;32.54
66752;SHT31;53663;42.676;23.238;2023-10-31T08:42:38;26.08;33.67
66752;SHT31;53663;42.676;23.238;2023-10-31T08:45:04;25.03;35.32
66752;SHT31;53663;42.676;23.238;2023-10-31T08:47:30;23.65;38.31
66752;SHT31;53663;42.676;23.238;2023-10-31T08:49:55;23.76;38.35
66752;SHT31;53663;42.676;23.238;2023-10-31T08:52:21;23.53;40.43
66752;SHT31;53663;42.676;23.238;2023-10-31T08:54:47;23.35;39.30
66752;SHT31;53663;42.676;23.238;2023-10-31T08:57:14;22.80;40.45
66752;SHT31;53663;42.676;23.238;2023-10-31T08:59:39;22.66;41.45
66752;SHT31;53663;42.676;23.238;2023-10-31T09:02:06;22.80;38.91
66752;SHT31;53663;42.676;23.238;2023-10-31T09:04:31;22.78;40.40
66752;SHT31;53663;42.676;23.238;2023-10-31T09:06:57;22.81;39.63
66752;SHT31;53663;42.676;23.238;2023-10-31T09:09:22;22.49;40.94
66752;SHT31;53663;42.676;23.238;2023-10-31T09:11:48;22.74;39.92
66752;SHT31;53663;42.676;23.238;2023-10-31T09:14:13;22.23;39.92
66752;SHT31;53663;42.676;23.238;2023-10-31T09:16:39;22.18;40.26
66752;SHT31;53663;42.676;23.238;2023-10-31T09:19:04;22.35;40.26
66752;SHT31;53663;42.676;23.238;2023-10-31T09:21:30;22.26;39.60
66752;SHT31;53663;42.676;23.238;2023-10-31T09:23:55;22.37;40.62
66752;SHT31;53663;42.676;23.238;2023-10-31T09:26:21;22.39;41.74
66752;SHT31;53663;42.676;23.238;2023-10-31T09:28:46;22.74;40.10
66752;SHT31;53663;42.676;23.238;2023-10-31T09:31:17;22.84;39.50
66752;SHT31;53663;42.676;23.238;2023-10-31T09:33:43;22.76;38.89
66752;SHT31;53663;42.676;23.238;2023-10-31T09:36:09;22.87;39.71
66752;SHT31;53663;42.676;23.238;2023-10-31T09:38:35;22.47;39.64
66752;SHT31;53663;42.676;23.238;2023-10-31T09:41:01;22.29;41.02
66752;SHT31;53663;42.676;23.238;2023-10-31T09:43:26;22.71;40.56
66752;SHT31;53663;42.676;23.238;2023-10-31T09:45:52;22.59;40.90
66752;SHT31;53663;42.676;23.238;2023-10-31T09:48:19;22.83;39.83
66752;SHT31;53663;42.676;23.238;2023-10-31T09:50:46;22.60;39.30
66752;SHT31;53663;42.676;23.238;2023-10-31T09:53:14;22.45;40.01
66752;SHT31;53663;42.676;23.238;2023-10-31T09:55:42;22.37;39.45
66752;SHT31;53663;42.676;23.238;2023-10-31T09:58:08;21.98;40.29
66752;SHT31;53663;42.676;23.238;2023-10-31T10:00:34;22.29;40.66
66752;SHT31;53663;42.676;23.238;2023-10-31T10:03:02;22.64;40.25
66752;SHT31;53663;42.676;23.238;2023-10-31T10:05:31;22.66;42.05
66752;SHT31;53663;42.676;23.238;2023-10-31T10:07:56;22.63;40.56
66752;SHT31;53663;42.676;23.238;2023-10-31T10:10:22;22.32;40.54
66752;SHT31;53663;42.676;23.238;2023-10-31T10:12:47;22.40;41.02
66752;SHT31;53663;42.676;23.238;2023-10-31T10:15:13;22.47;40.32
66752;SHT31;53663;42.676;23.238;2023-10-31T10:17:38;22.59;40.40
66752;SHT31;53663;42.676;23.238;2023-10-31T10:20:09;22.50;41.95
66752;SHT31;53663;42.676;23.238;2023-10-31T10:22:39;22.50;40.42
66752;SHT31;53663;42.676;23.238;2023-10-31T10:25:06;22.35;41.27
66752;SHT31;53663;42.676;23.238;2023-10-31T10:27:32;22.52;41.27
66752;SHT31;53663;42.676;23.238;2023-10-31T10:29:58;22.60;40.60
66752;SHT31;53663;42.676;23.238;2023-10-31T10:32:23;22.71;37.95
66752;SHT31;53663;42.676;23.238;2023-10-31T10:34:49;22.42;40.61
66752;SHT31;53663;42.676;23.238;2023-10-31T10:37:16;22.49;40.63
66752;SHT31;53663;42.676;23.238;2023-10-31T10:39:47;22.56;40.26
66752;SHT31;53663;42.676;23.238;2023-10-31T10:42:17;22.67;39.83
66752;SHT31;53663;42.676;23.238;2023-10-31T10:44:44;22.23;39.65
66752;SHT31;53663;42.676;23.238;2023-10-31T10:47:12;22.47;41.03
66752;SHT31;53663;42.676;23.238;2023-10-31T10:49:41;22.20;39.57
66752;SHT31;53663;42.676;23.238;2023-10-31T10:52:18;21.94;40.19
66752;SHT31;53663;42.676;23.238;2023-10-31T10:57:15;21.74;40.95
66752;SHT31;53663;42.676;23.238;2023-10-31T10:59:47;21.62;42.50
66752;SHT31;53663;42.676;23.238;2023-10-31T11:02:17;21.68;41.01
66752;SHT31;53663;42.676;23.238;2023-10-31T11:04:43;21.43;41.03
66752;SHT31;53663;42.676;23.238;2023-10-31T11:07:09;21.53;43.03
66752;SHT31;53663;42.676;23.238;2023-10-31T11:09:36;21.67;41.60
66752;SHT31;53663;42.676;23.238;2023-10-31T11:12:03;21.68;40.95
66752;SHT31;53663;42.676;23.238;2023-10-31T11:14:30;21.54;40.60
66752;SHT31;53663;42.676;23.238;2023-10-31T11:16:59;21.39;40.92
66752;SHT31;53663;42.676;23.238;2023-10-31T11:19:26;21.10;42.37
66752;SHT31;53663;42.676;23.238;2023-10-31T11:21:58;21.10;41.73
66752;SHT31;53663;42.676;23.238;2023-10-31T11:24:27;21.29;41.71
66752;SHT31;53663;42.676;23.238;2023-10-31T11:26:54;21.34;40.60
66752;SHT31;53663;42.676;23.238;2023-10-31T11:29:23;21.07;41.41
66752;SHT31;53663;42.676;23.238;2023-10-31T11:31:49;20.98;41.92
66752;SHT31;53663;42.676;23.238;2023-10-31T11:34:19;21.02;41.42
66752;SHT31;53663;42.676;23.238;2023-10-31T11:36:46;21.07;41.80
66752;SHT31;53663;42.676;23.238;2023-10-31T11:39:18;21.04;39.81
66752;SHT31;53663;42.676;23.238;2023-10-31T11:41:45;21.24;39.36
66752;SHT31;53663;42.676;23.238;2023-10-31T11:44:14;21.39;39.59
66752;SHT31;53663;42.676;23.238;2023-10-31T11:46:40;21.44;40.16
66752;SHT31;53663;42.676;23.238;2023-10-31T11:49:06;21.29;38.11
66752;SHT31;53663;42.676;23.238;2023-10-31T11:51:32;21.03;38.40
66752;SHT31;53663;42.676;23.238;2023-10-31T11:53:59;20.83;38.78
66752;SHT31;53663;42.676;23.238;2023-10-31T11:56:26;20.59;38.32
66752;SHT31;53663;42.676;23.238;2023-10-31T11:59:04;20.61;38.69
66752;SHT31;53663;42.676;23.238;2023-10-31T12:01:30;20.47;37.98
66752;SHT31;53663;42.676;23.238;2023-10-31T12:03:55;20.51;38.24
66752;SHT31;53663;42.676;23.238;2023-10-31T12:06:21;20.65;38.83
66752;SHT31;53663;42.676;23.238;2023-10-31T12:08:48;20.82;37.52
66752;SHT31;53663;42.676;23.238;2023-10-31T12:16:26;22.20;37.43
66752;SHT31;53663;42.676;23.238;2023-10-31T12:19:03;22.95;32.25
66752;SHT31;53663;42.676;23.238;2023-10-31T12:21:42;23.70;31.21
66752;SHT31;53663;42.676;23.238;2023-10-31T12:24:13;24.79;29.51
66752;SHT31;53663;42.676;23.238;2023-10-31T12:26:39;25.07;29.06
66752;SHT31;53663;42.676;23.238;2023-10-31T12:29:10;25.13;29.75
66752;SHT31;53663;42.676;23.238;2023-10-31T12:31:43;25.64;29.06
66752;SHT31;53663;42.676;23.238;2023-10-31T12:34:09;24.92;31.05
66752;SHT31;53663;42.676;23.238;2023-10-31T12:36:35;25.06;31.45
66752;SHT31;53663;42.676;23.238;2023-10-31T12:39:02;25.09;30.97
66752;SHT31;53663;42.676;23.238;2023-10-31T12:41:29;24.01;32.67
66752;SHT31;53663;42.676;23.238;2023-10-31T12:43:55;23.37;34.55
66752;SHT31;53663;42.676;23.238;2023-10-31T12:46:27;22.57;35.16
66752;SHT31;53663;42.676;23.238;2023-10-31T12:48:53;22.26;36.89
66752;SHT31;53663;42.676;23.238;2023-10-31T12:51:19;22.37;36.49
66752;SHT31;53663;42.676;23.238;2023-10-31T12:53:51;22.26;37.12
66752;SHT31;53663;42.676;23.238;2023-10-31T12:59:05;21.97;36.99
66752;SHT31;53663;42.676;23.238;2023-10-31T13:01:34;21.57;38.27
66752;SHT31;53663;42.676;23.238;2023-10-31T13:04:00;21.68;37.88
66752;SHT31;53663;42.676;23.238;2023-10-31T13:06:27;21.55;40.00
66752;SHT31;53663;42.676;23.238;2023-10-31T13:08:55;21.50;39.03
66752;SHT31;53663;42.676;23.238;2023-10-31T13:11:22;21.64;38.23
66752;SHT31;53663;42.676;23.238;2023-10-31T13:13:52;21.57;38.42
66752;SHT31;53663;42.676;23.238;2023-10-31T13:16:18;21.62;39.07
66752;SHT31;53663;42.676;23.238;2023-10-31T13:18:44;21.61;38.93
66752;SHT31;53663;42.676;23.238;2023-10-31T13:21:10;21.80;39.28
66752;SHT31;53663;42.676;23.238;2023-10-31T13:23:36;23.05;37.36
66752;SHT31;53663;42.676;23.238;2023-10-31T13:26:04;24.30;35.12
66752;SHT31;53663;42.676;23.238;2023-10-31T13:28:32;24.69;35.21
66752;SHT31;53663;42.676;23.238;2023-10-31T13:31:00;24.54;33.83
66752;SHT31;53663;42.676;23.238;2023-10-31T13:33:25;24.69;33.92
66752;SHT31;53663;42.676;23.238;2023-10-31T13:35:51;25.05;33.25
66752;SHT31;53663;42.676;23.238;2023-10-31T13:38:16;24.71;33.28
66752;SHT31;53663;42.676;23.238;2023-10-31T13:40:43;24.20;34.39
66752;SHT31;53663;42.676;23.238;2023-10-31T13:43:09;23.56;36.65
66752;SHT31;53663;42.676;23.238;2023-10-31T13:45:34;23.12;37.48
66752;SHT31;53663;42.676;23.238;2023-10-31T13:48:00;23.03;36.61
66752;SHT31;53663;42.676;23.238;2023-10-31T13:50:25;22.78;36.55
66752;SHT31;53663;42.676;23.238;2023-10-31T13:52:51;22.32;38.80
66752;SHT31;53663;42.676;23.238;2023-10-31T13:55:18;21.74;39.31
66752;SHT31;53663;42.676;23.238;2023-10-31T13:57:44;21.60;39.96
66752;SHT31;53663;42.676;23.238;2023-10-31T14:00:10;21.71;39.68
66752;SHT31;53663;42.676;23.238;2023-10-31T14:02:39;21.68;39.04
66752;SHT31;53663;42.676;23.238;2023-10-31T14:05:05;21.73;40.01
66752;SHT31;53663;42.676;23.238;2023-10-31T14:07:31;21.77;39.64
66752;SHT31;53663;42.676;23.238;2023-10-31T14:09:57;21.23;40.63
66752;SHT31;53663;42.676;23.238;2023-10-31T14:12:23;21.36;41.48
66752;SHT31;53663;42.676;23.238;2023-10-31T14:14:48;21.07;41.47
66752;SHT31;53663;42.676;23.238;2023-10-31T14:17:15;21.22;40.67
66752;SHT31;53663;42.676;23.238;2023-10-31T14:19:42;21.12;41.40
66752;SHT31;53663;42.676;23.238;2023-10-31T14:22:08;21.24;41.18
66752;SHT31;53663;42.676;23.238;2023-10-31T14:24:33;21.29;41.84
66752;SHT31;53663;42.676;23.238;2023-10-31T14:27:00;21.02;41.84
66752;SHT31;53663;42.676;23.238;2023-10-31T14:29:26;21.06;43.02
66752;SHT31;53663;42.676;23.238;2023-10-31T14:31:52;20.89;42.30
66752;SHT31;53663;42.676;23.238;2023-10-31T14:34:20;20.85;43.83
66752;SHT31;53663;42.676;23.238;2023-10-31T14:36:46;20.93;44.20
66752;SHT31;53663;42.676;23.238;2023-10-31T14:39:12;20.75;44.13
66752;SHT31;53663;42.676;23.238;2023-10-31T14:41:38;20.58;44.89
66752;SHT31;53663;42.676;23.238;2023-10-31T14:44:04;20.58;44.91
66752;SHT31;53663;42.676;23.238;2023-10-31T14:46:30;20.54;45.15
66752;SHT31;53663;42.676;23.238;2023-10-31T14:48:57;20.51;44.50
66752;SHT31;53663;42.676;23.238;2023-10-31T14:51:23;20.44;44.71
66752;SHT31;53663;42.676;23.238;2023-10-31T14:53:48;20.17;45.88
66752;SHT31;53663;42.676;23.238;2023-10-31T14:56:14;20.10;45.12
66752;SHT31;53663;42.676;23.238;2023-10-31T14:58:40;19.41;44.07
66752;SHT31;53663;42.676;23.238;2023-10-31T15:01:07;19.56;44.04
66752;SHT31;53663;42.676;23.238;2023-10-31T15:03:32;19.49;45.62
66752;SHT31;53663;42.676;23.238;2023-10-31T15:05:58;19.03;46.69
66752;SHT31;53663;42.676;23.238;2023-10-31T15:08:24;18.93;46.04
66752;SHT31;53663;42.676;23.238;2023-10-31T15:10:51;18.81;46.67
66752;SHT31;53663;42.676;23.238;2023-10-31T15:13:16;19.01;47.15
66752;SHT31;53663;42.676;23.238;2023-10-31T15:15:42;19.28;44.69
66752;SHT31;53663;42.676;23.238;2023-10-31T15:18:07;19.00;43.38
66752;SHT31;53663;42.676;23.238;2023-10-31T15:20:33;19.11;43.85
66752;SHT31;53663;42.676;23.238;2023-10-31T15:22:58;18.89;43.96
66752;SHT31;53663;42.676;23.238;2023-10-31T15:25:24;19.17;43.18